• Join FlightAware (Why Join?)
  • Login
  • US Flag 
11:07AM EDT


 

Airport Tracker/Info


-or-


 

Live Flight TrackerFlight Track Log ✈ UAL582 ✈ 15-May-2013 ✈ CYYZ - KORD

Flight Track Log - Related Links

Times and Time Zones

All times are in EDT time to prevent confusion due to time zone crossing. See the UAL582 flight status page for this flight to view local times or setup timezone preferences in your user account.

Time Position Orientation Groundspeed Altitude Reporting Facility
EDT Latitude Longitude Course Direction KTS MPH feet Rate Location/Type
05:41PM 43.7333 -79.6833 270° West 200 230 4,500  Level Toronto Center
05:42PM 43.7014 -79.9829 277° West  Level FlightAware Approximate
05:42PM 43.7500 -79.7667 286° West 250 288 6,900  Level Toronto Center
05:43PM 43.7117 -80.1060 277° West  Level FlightAware Approximate
05:43PM 43.7500 -79.8667 270° West 250 288 7,900  Level Toronto Center
05:44PM 43.7178 -80.2295 277° West  Level FlightAware Approximate
05:44PM 43.7500 -79.9500 270° West 260 299 11,300  Level Toronto Center
05:45PM 43.7290 -80.3525 277° West  Level FlightAware Approximate
05:45PM 43.7500 -80.0667 270° West 260 299 13,400  Level Toronto Center
05:46PM 43.7334 -80.4929 270° West  Level FlightAware Approximate
05:46PM 43.7500 -80.1833 270° West 290 334 16,400  Level Toronto Center
05:47PM 43.7500 -80.3000 270° West 290 334 18,500 2,040 Climbing Toronto Center
05:48PM 43.7500 -80.4167 270° West 310 357 20,500 1,860 Climbing Toronto Center
05:49PM 43.7333 -80.5500 260° West 320 368 22,300 1,740 Climbing Toronto Center
05:50PM 43.7167 -80.6667 259° West 340 391 24,000 1,260 Climbing Toronto Center
05:51PM 43.6833 -80.7833 248° West 350 403 24,900 960 Climbing Toronto Center
05:52PM 43.6500 -80.9167 251° West 370 426 26,000 1,260 Climbing Toronto Center
05:53PM 43.6167 -81.0667 253° West 380 437 27,500 1,320 Climbing Toronto Center
05:54PM 43.5833 -81.2167 253° West 390 449 28,700 1,380 Climbing Toronto Center
05:55PM 43.5500 -81.3667 253° West 390 449 30,300 1,500 Climbing Toronto Center
05:56PM 43.5333 -81.5000 260° West 380 437 31,700 1,200 Climbing Toronto Center
05:57PM 43.5000 -81.6333 251° West 380 437 32,700 1,200 Climbing Toronto Center
05:58PM 43.4667 -81.7667 251° West 380 437 34,200 1,200 Climbing Toronto Center
05:59PM 43.4333 -81.9000 251° West 370 426 35,200 900 Climbing Toronto Center
06:00PM 43.4000 -82.0500 253° West 370 426 36,000 360 Climbing Toronto Center
06:01PM 43.3667 -82.1833 251° West 360 414 36,000  Level Toronto Center
06:02PM 43.3333 -82.3167 251° West 370 426 36,000  Level Toronto Center
06:03PM 43.3167 -82.4333 259° West 370 426 36,000 -120 Level Toronto Center
06:04PM 43.2833 -82.5667 251° West 370 426 35,800 -1,200 Descending Toronto Center
06:05PM 43.2711 -82.6503 259° West 366 421 34,100 -2,340 Descending Cleveland Center
06:06PM 43.2372 -82.7889 251° West 366 421 32,000 -1,080 Descending Cleveland Center
06:07PM 43.1972 -82.9242 248° West 376 433 32,000  Level Cleveland Center
06:08PM 43.1608 -83.0622 250° West 387 445 32,000  Level Cleveland Center
06:09PM 43.1225 -83.1972 249° West 387 445 32,000  Level Cleveland Center
06:10PM 43.0839 -83.3378 249° West 387 445 32,000  Level Cleveland Center
06:11PM 43.0431 -83.4722 247° West 387 445 32,000  Level Cleveland Center
06:12PM 43.0039 -83.6125 249° West 392 451 32,000  Level Cleveland Center
06:13PM 42.9669 -83.7497 250° West 392 451 32,000  Level Cleveland Center
06:14PM 42.9503 -83.8936 261° West 387 445 32,000  Level Cleveland Center
06:15PM 42.9378 -84.0375 263° West 387 445 32,000  Level Cleveland Center
06:16PM 42.9228 -84.1842 262° West 387 445 32,000  Level Cleveland Center
06:17PM 42.9081 -84.3281 262° West 387 445 32,000  Level Cleveland Center
06:18PM 42.8919 -84.5042 263° West 384 442 32,000  Level Chicago Center
06:19PM 42.8769 -84.6486 262° West 385 443 32,000  Level Chicago Center
06:20PM 42.8608 -84.7953 262° West 390 449 32,000  Level Chicago Center
06:21PM 42.8464 -84.9411 262° West 390 449 32,000 -180 Level Chicago Center
06:22PM 42.8317 -85.0883 262° West 391 450 31,700 -1,260 Descending Chicago Center
06:23PM 42.8153 -85.2314 261° West 387 445 29,500 -1,800 Descending Chicago Center
06:24PM 42.7969 -85.3983 262° West 375 432 28,000 -780 Descending Chicago Center
06:25PM 42.7803 -85.5369 261° West 371 427 28,000 -300 Level Chicago Center
06:26PM 42.7542 -85.6744 256° West 374 430 27,400 -1,260 Descending Chicago Center
06:27PM 42.7297 -85.8111 256° West 372 428 25,400 -2,040 Descending Chicago Center
06:28PM 42.7061 -85.9417 256° West 357 411 23,300 -2,160 Descending Chicago Center
06:29PM 42.6839 -86.0678 257° West 345 397 21,000 -1,620 Descending Chicago Center
06:30PM 42.6606 -86.1942 256° West 343 395 20,000 -480 Descending Chicago Center
06:31PM 42.6347 -86.3225 255° West 350 403 20,000 -240 Level Chicago Center
06:32PM 42.6069 -86.4753 256° West 347 399 19,600 -1,380 Descending Chicago Center
06:33PM 42.5831 -86.6006 256° West 344 396 17,200 -1,800 Descending Chicago Center
06:34PM 42.5606 -86.7228 256° West 337 388 16,000 -780 Descending Chicago Center
06:35PM 42.5294 -86.8414 250° West 337 388 15,700 -1,260 Descending Chicago Center
06:36PM 42.4981 -86.9556 250° West 327 376 13,500 -1,980 Descending Chicago Center
06:37PM 42.4672 -87.0650 249° West 315 362 11,700 -1,620 Descending Chicago Center
06:38PM 42.4303 -87.1989 250° West 319 367 10,200 -840 Descending Chicago Center
06:40PM 42.3981 -87.3158 250° West 331 381 10,000 -120 Descending Chicago Center
06:41PM 42.3664 -87.4328 250° West 321 369 10,000  Level Chicago Center
06:42PM 42.3328 -87.5444 248° West 321 369 10,000 -240 Level Chicago Center
06:43PM 42.2678 -87.6078 216° Southwest 287 330 9,600 -1,020 Descending Chicago Center
06:44PM 42.2081 -87.6714 218° Southwest 275 316 8,000 -780 Descending Chicago Center
06:45PM 42.1356 -87.7483 218° Southwest 277 319 8,000 -540 Level Chicago Center
06:45PM 42.1000 -87.8000 227° Southwest 277 319 7,100 -600 Descending Chicago TRACON
06:47PM 42.1000 -87.9167 270° West 267 307 7,000 -60 Descending Chicago TRACON
06:48PM 42.0833 -88.0000 255° West 263 303 7,000 -120 Level Chicago TRACON
06:49PM 42.0667 -88.0833 255° West 225 259 6,800 -900 Descending Chicago TRACON
06:50PM 42.0667 -88.1667 270° West 224 258 5,200 -1,560 Descending Chicago TRACON
06:50PM 42.0539 -88.1978 241° Southwest 225 259 4,800 -780 Descending Chicago Center
06:51PM 42.0208 -88.2453 227° Southwest 212 244 4,200 -420 Descending Chicago Center
06:52PM 41.9861 -88.1964 134° Southeast 206 237 4,000 -420 Descending Chicago Center
06:53PM 41.9669 -88.1278 111° Southeast 200 230 3,400 -600 Descending Chicago Center